Flight Track Log - Related Links

Times and Time Zones

All times are in EDT time to prevent confusion due to time zone crossing. See the N864AS flight status page for this flight to view local times or setup timezone preferences in your user account.

Time Position Orientation Groundspeed Altitude Reporting Facility
EDT Latitude Longitude Course Direction KTS MPH feet Rate Location/Type
Wed 06:59:40 AM 40.8581 -96.7669 19° North 149 171 1,900  Level Minneapolis Center
Wed 07:00:35 AM 40.8961 -96.7497 43° Northeast 176 203 3,400 2,122 Climbing Minneapolis Center
Wed 07:02:41 AM 41.0042 -96.6156 47° Northeast 281 323 8,300 2,323 Climbing Minneapolis Center
Wed 07:03:41 AM 41.0561 -96.5411 45° Northeast 275 316 10,600 1,800 Climbing Minneapolis Center
Wed 07:04:41 AM 41.1189 -96.4564 47° Northeast 290 334 11,900 1,650 Climbing Minneapolis Center
Wed 07:05:41 AM 41.1881 -96.3578 45° Northeast 328 377 13,900 1,750 Climbing Minneapolis Center
Wed 07:06:41 AM 41.2594 -96.2617 46° Northeast 347 399 15,400 1,700 Climbing Minneapolis Center
Wed 07:07:41 AM 41.3306 -96.1628 45° Northeast 361 415 17,300 1,400 Climbing Minneapolis Center
Wed 07:08:41 AM 41.4081 -96.0583 47° Northeast 376 433 18,200 1,150 Climbing Minneapolis Center
Wed 07:09:41 AM 41.4811 -95.9536 44° Northeast 376 433 19,600 1,200 Climbing Minneapolis Center
Wed 07:10:41 AM 41.5625 -95.8489 48° Northeast 388 447 20,600 1,000 Climbing Minneapolis Center
Wed 07:11:41 AM 41.6358 -95.7381 49° Northeast 388 447 21,600 1,050 Climbing Minneapolis Center
Wed 07:12:41 AM 41.7175 -95.6133 47° Northeast 394 453 22,700 1,200 Climbing Minneapolis Center
Wed 07:13:41 AM 41.7944 -95.5019 48° Northeast 400 460 24,000 1,400 Climbing Minneapolis Center
Wed 07:14:41 AM 41.8672 -95.3931 46° Northeast 400 460 25,500 1,250 Climbing Minneapolis Center
Wed 07:15:41 AM 41.9397 -95.2922 48° Northeast 387 445 26,500 950 Climbing Minneapolis Center
Wed 07:16:41 AM 42.0103 -95.1856 47° Northeast 382 440 27,400 850 Climbing Minneapolis Center
Wed 07:17:41 AM 42.0825 -95.0814 48° Northeast 382 440 28,200 650 Climbing Minneapolis Center
Wed 07:18:41 AM 42.1550 -94.9744 46° Northeast 382 440 28,700 400 Climbing Minneapolis Center
Wed 07:19:41 AM 42.2292 -94.8697 48° Northeast 382 440 29,000 150 Climbing Minneapolis Center
Wed 07:20:41 AM 42.3056 -94.7567 49° Northeast 387 445 29,000  Level Minneapolis Center
Wed 07:21:41 AM 42.3797 -94.6431 47° Northeast 387 445 29,000  Level Minneapolis Center
Wed 07:22:41 AM 42.4578 -94.5294 49° Northeast 392 451 29,000  Level Minneapolis Center
Wed 07:23:41 AM 42.5233 -94.4267 49° Northeast 392 451 29,000  Level Minneapolis Center
Wed 07:24:41 AM 42.5953 -94.3122 39° Northeast 398 458 29,000  Level Minneapolis Center
Wed 07:25:41 AM 42.6833 -94.2147 39° Northeast 398 458 29,000  Level Minneapolis Center
Wed 07:26:41 AM 42.7714 -94.1169 39° Northeast 403 464 29,000  Level Minneapolis Center
Wed 07:27:41 AM 42.8594 -94.0189 26° Northeast 408 470 29,000  Level Minneapolis Center
Wed 07:28:41 AM 42.9597 -93.9519 17° North 403 464 29,000  Level Minneapolis Center
Wed 07:29:41 AM 43.0619 -93.9103 14° North 383 441 29,000  Level Minneapolis Center
Wed 07:30:41 AM 43.1661 -93.8742 15° North 389 448 29,000  Level Minneapolis Center
Wed 07:31:41 AM 43.2789 -93.8322 15° North 389 448 29,000  Level Minneapolis Center
Wed 07:32:41 AM 43.3831 -93.7928 15° North 389 448 29,000  Level Minneapolis Center
Wed 07:33:41 AM 43.4872 -93.7536 17° North 389 448 29,000 -50 Level Minneapolis Center
Wed 07:34:41 AM 43.6103 -93.7025 14° North 408 470 28,900 -1,300 Descending Minneapolis Center
Wed 07:35:41 AM 43.7061 -93.6686 17° North 408 470 26,400 -2,800 Descending Minneapolis Center
Wed 07:36:41 AM 43.8103 -93.6258 16° North 398 458 23,300 -3,150 Descending Minneapolis Center
Wed 07:37:41 AM 43.9186 -93.5831 16° North 398 458 20,100 -3,340 Descending Minneapolis Center
Wed 07:38:27 AM 44.0069 -93.5481 15° North 382 440 17,400 -3,488 Descending FAA TRACON SMA TRACON (SMA)
Wed 07:39:07 AM 44.0764 -93.5214 15° North 374 430 15,100 -3,150 Descending FAA TRACON SMA TRACON (SMA)
Wed 07:39:47 AM 44.1364 -93.4983 16° North 360 414 13,200 -2,889 Descending FAA TRACON SMA TRACON (SMA)
Wed 07:40:28 AM 44.2017 -93.4722 22° Northeast 352 405 11,200 -1,650 Descending FAA TRACON SMA TRACON (SMA)
Wed 07:41:07 AM 44.2647 -93.4372 27° Northeast 355 409 11,000 -152 Descending FAA TRACON SMA TRACON (SMA)
Wed 07:41:47 AM 44.3194 -93.3975 26° Northeast 357 411 11,000 -300 Level FAA TRACON SMA TRACON (SMA)
Wed 07:42:27 AM 44.3783 -93.3572 27° Northeast 340 391 10,600 -600 Descending FAA TRACON SMA TRACON (SMA)
Wed 07:43:07 AM 44.4289 -93.3217 27° Northeast 290 334 10,200 -1,050 Descending FAA TRACON SMA TRACON (SMA)
Wed 07:43:47 AM 44.4686 -93.2928 36° Northeast 263 303 9,200 -1,650 Descending FAA TRACON SMA TRACON (SMA)
Wed 07:44:27 AM 44.5103 -93.2497 36° Northeast 269 310 8,000 -900 Descending FAA TRACON SMA TRACON (SMA)
Wed 07:45:07 AM 44.5500 -93.2094 35° Northeast 255 293 8,000  Level FAA TRACON SMA TRACON (SMA)
Wed 07:45:47 AM 44.5864 -93.1736 34° Northeast 257 296 8,000  Level FAA TRACON SMA TRACON (SMA)
Wed 07:46:27 AM 44.6272 -93.1350 34° Northeast 255 293 8,000 -444 Level FAA TRACON SMA TRACON (SMA)
Wed 07:47:08 AM 44.6678 -93.0967 29° Northeast 253 291 7,400 -1,575 Descending FAA TRACON SMA TRACON (SMA)
Wed 07:47:47 AM 44.7039 -93.0686 North 243 280 5,900 -1,823 Descending FAA TRACON SMA TRACON (SMA)
Wed 07:48:27 AM 44.7453 -93.0633 350° North 210 242 5,000 -1,725 Descending FAA TRACON SMA TRACON (SMA)
Wed 07:49:07 AM 44.7800 -93.0719 348° North 180 207 3,600 -1,350 Descending FAA TRACON SMA TRACON (SMA)
Wed 07:49:47 AM 44.8125 -93.0819 335° Northwest 174 200 3,200 -741 Descending FAA TRACON SMA TRACON (SMA)
Wed 07:50:28 AM 44.8397 -93.1000 303° West 181 208 2,600 -975 Descending FAA TRACON SMA TRACON (SMA)
Wed 07:51:07 AM 44.8561 -93.1350 301° West 150 173 1,900 -911 Descending FAA TRACON SMA TRACON (SMA)
Wed 07:51:47 AM 44.8694 -93.1664 302° West 131 151 1,400 -675 Descending FAA TRACON SMA TRACON (SMA)
Wed 07:52:27 AM 44.8797 -93.1900 302° West 132 152 1,000 -600 Descending FAA TRACON SMA TRACON (SMA)

Login

Don't have an account? Register now (free) for customized features, flight alerts, and more!